createdAt,value
2022-12-19T00:00:20.293Z,1
2022-12-19T00:05:20.241Z,2
2022-12-19T00:10:20.243Z,2
2022-12-19T00:15:20.287Z,2
2022-12-19T00:20:20.133Z,2
2022-12-19T00:25:20.369Z,4
2022-12-19T00:30:20.836Z,3
2022-12-19T00:35:17.190Z,2
2022-12-19T00:40:17.217Z,2
2022-12-19T00:45:20.428Z,3
2022-12-19T00:50:20.333Z,3
2022-12-19T00:55:20.450Z,4
2022-12-19T01:00:20.458Z,3
2022-12-19T01:05:20.442Z,3
2022-12-19T01:10:20.404Z,3
2022-12-19T01:15:20.395Z,2
2022-12-19T01:20:27.663Z,2
2022-12-19T01:25:20.401Z,4
2022-12-19T01:30:17.273Z,5
2022-12-19T01:35:21.160Z,5
2022-12-19T01:40:20.609Z,4
2022-12-19T01:45:20.513Z,3
2022-12-19T01:50:20.545Z,3
2022-12-19T01:55:20.528Z,2
2022-12-19T02:00:20.468Z,1
2022-12-19T02:05:20.489Z,2
2022-12-19T02:10:20.547Z,3
2022-12-19T02:15:20.536Z,2
2022-12-19T02:20:20.376Z,1
2022-12-19T02:25:17.438Z,1
2022-12-19T02:30:17.453Z,1
2022-12-19T02:35:18.597Z,2
2022-12-19T02:40:18.575Z,3
2022-12-19T02:45:21.983Z,2
2022-12-19T02:50:18.701Z,2
2022-12-19T02:55:18.588Z,3
2022-12-19T03:00:18.524Z,2
2022-12-19T03:05:15.570Z,2
2022-12-19T03:10:18.696Z,1
2022-12-19T03:15:18.723Z,1
2022-12-19T03:20:18.664Z,1
2022-12-19T03:25:18.865Z,1
2022-12-19T03:30:18.660Z,3
2022-12-19T03:35:18.598Z,2
2022-12-19T03:40:18.705Z,2
2022-12-19T03:45:18.760Z,4
2022-12-19T03:50:18.757Z,0
2022-12-19T03:55:15.720Z,0
2022-12-19T04:00:15.837Z,0
2022-12-19T04:05:18.844Z,0
2022-12-19T04:10:18.901Z,0
2022-12-19T04:15:18.759Z,0
2022-12-19T04:20:18.744Z,0
2022-12-19T04:25:18.755Z,0
2022-12-19T04:30:18.954Z,0
2022-12-19T04:35:18.850Z,0
2022-12-19T04:40:18.904Z,1
2022-12-19T04:45:18.869Z,1
2022-12-19T04:50:15.788Z,2
2022-12-19T04:55:15.859Z,1
2022-12-19T05:00:20.381Z,1
2022-12-19T05:05:20.214Z,1
2022-12-19T05:10:20.232Z,2
2022-12-19T05:15:20.188Z,1
2022-12-19T05:20:17.113Z,1
2022-12-19T05:25:17.098Z,2
2022-12-19T05:30:20.261Z,1
2022-12-19T05:35:20.265Z,1
2022-12-19T05:40:20.288Z,2
2022-12-19T05:45:20.248Z,2
2022-12-19T05:50:20.253Z,2
2022-12-19T05:55:20.278Z,2
2022-12-19T06:00:20.378Z,3
2022-12-19T06:05:20.330Z,5
2022-12-19T06:10:20.380Z,4
2022-12-19T06:15:17.122Z,6
2022-12-19T06:20:20.341Z,2
2022-12-19T06:25:20.381Z,3
2022-12-19T06:30:20.379Z,7
2022-12-19T06:35:20.395Z,5
2022-12-19T06:40:20.330Z,6
2022-12-19T06:45:20.495Z,7
2022-12-19T06:50:20.444Z,6
2022-12-19T06:55:20.544Z,7
2022-12-19T07:00:20.847Z,5
2022-12-19T07:05:17.308Z,4
2022-12-19T07:10:17.301Z,2
2022-12-19T07:15:20.419Z,3
2022-12-19T07:20:20.626Z,2
2022-12-19T07:25:20.417Z,3
2022-12-19T07:30:20.481Z,3
2022-12-19T07:35:20.545Z,3
2022-12-19T07:40:20.492Z,4
2022-12-19T07:45:20.562Z,2
2022-12-19T07:50:20.718Z,2
2022-12-19T07:55:20.482Z,1
2022-12-19T08:00:17.617Z,3
2022-12-19T08:05:17.401Z,3
2022-12-19T08:10:15.547Z,4
2022-12-19T08:15:18.467Z,5
2022-12-19T08:20:18.584Z,6
2022-12-19T08:25:18.919Z,7
2022-12-19T08:30:18.703Z,11
2022-12-19T08:35:18.601Z,11
2022-12-19T08:40:15.557Z,10
2022-12-19T08:45:15.474Z,10
2022-12-19T08:50:18.824Z,7
2022-12-19T08:55:18.687Z,9
2022-12-19T09:00:18.761Z,11
2022-12-19T09:06:02.284Z,8
2022-12-19T09:10:18.597Z,11
2022-12-19T09:15:18.783Z,13
2022-12-19T09:20:23.179Z,13
2022-12-19T09:25:18.781Z,17
2022-12-19T09:30:18.755Z,17
2022-12-19T09:35:15.792Z,12
2022-12-19T09:40:18.780Z,11
2022-12-19T09:45:28.192Z,10
2022-12-19T09:50:18.795Z,9
2022-12-19T09:55:18.845Z,11
2022-12-19T10:00:18.925Z,10
2022-12-19T10:05:44.350Z,7
2022-12-19T10:07:11.126Z,7
2022-12-19T10:12:35.345Z,6
2022-12-19T10:12:38.769Z,6
2022-12-19T10:12:44.542Z,6
2022-12-19T10:15:18.866Z,8
2022-12-19T10:20:19.141Z,7
2022-12-19T10:25:15.810Z,5
2022-12-19T10:30:15.845Z,4
2022-12-19T10:35:18.914Z,6
2022-12-19T10:40:28.411Z,3
2022-12-19T10:45:18.927Z,6
2022-12-19T10:50:19.032Z,7
2022-12-19T10:55:19.039Z,6
2022-12-19T11:00:19.079Z,5
2022-12-19T11:05:19.098Z,4
2022-12-19T11:10:30.798Z,3
2022-12-19T11:15:41.520Z,3
2022-12-19T11:16:39.253Z,3
2022-12-19T11:20:37.452Z,2
2022-12-19T11:22:53.210Z,2
2022-12-19T11:24:39.824Z,2
2022-12-19T11:29:30.142Z,3
2022-12-19T11:29:42.049Z,3
2022-12-19T11:29:54.651Z,3
2022-12-19T11:30:06.586Z,3
2022-12-19T11:30:36.057Z,3
2022-12-19T11:30:41.123Z,3
2022-12-19T11:32:20.519Z,3
2022-12-19T11:35:19.399Z,4
2022-12-19T11:40:19.153Z,4
2022-12-19T11:45:19.092Z,3
2022-12-19T11:50:19.277Z,4
2022-12-19T11:55:19.069Z,2
2022-12-19T12:00:19.112Z,2
2022-12-19T12:05:19.155Z,3
2022-12-19T12:16:55.023Z,5
2022-12-19T12:20:12.824Z,5
2022-12-19T12:20:41.743Z,5
2022-12-19T12:28:57.242Z,4
2022-12-19T12:30:45.061Z,4
2022-12-19T12:30:59.652Z,4
2022-12-19T12:31:04.473Z,1
2022-12-19T12:31:05.879Z,1
2022-12-19T12:31:10.657Z,1
2022-12-19T12:31:22.236Z,1
2022-12-19T12:31:40.357Z,1
2022-12-19T12:31:46.583Z,1
2022-12-19T12:32:05.404Z,1
2022-12-19T12:35:32.898Z,1
2022-12-19T12:40:23.651Z,3
2022-12-19T12:45:19.294Z,6
2022-12-19T12:50:19.269Z,6
2022-12-19T12:55:19.306Z,5
2022-12-19T13:00:19.308Z,4
2022-12-19T13:05:16.179Z,3
2022-12-19T13:10:16.173Z,6
2022-12-19T13:15:19.392Z,2
2022-12-19T13:20:19.265Z,5
2022-12-19T13:25:19.376Z,3
2022-12-19T13:30:19.318Z,4
2022-12-19T13:37:41.048Z,6
2022-12-19T13:39:22.663Z,6
2022-12-19T13:39:58.422Z,6
2022-12-19T13:40:20.883Z,7
2022-12-19T13:45:19.370Z,8
2022-12-19T13:50:19.432Z,5
2022-12-19T13:55:19.373Z,6
2022-12-19T14:00:16.371Z,11
2022-12-19T14:05:16.214Z,7
2022-12-19T14:11:40.636Z,5
2022-12-19T14:11:50.547Z,5
2022-12-19T14:15:19.478Z,5
2022-12-19T14:22:04.134Z,5
2022-12-19T14:22:04.468Z,5
2022-12-19T14:28:14.997Z,5
2022-12-19T14:28:19.581Z,5
2022-12-19T14:28:19.732Z,5
2022-12-19T14:30:27.534Z,10
2022-12-19T14:36:07.383Z,18
2022-12-19T14:40:19.503Z,13
2022-12-19T14:53:34.019Z,19
2022-12-19T14:53:51.899Z,19
2022-12-19T14:54:06.895Z,19
2022-12-19T14:54:11.748Z,19
2022-12-19T14:54:26.677Z,19
2022-12-19T14:54:46.883Z,19
2022-12-19T14:56:08.717Z,13
2022-12-19T14:57:00.344Z,13
2022-12-19T15:00:50.668Z,15
2022-12-19T15:05:19.640Z,14
2022-12-19T15:11:09.507Z,19
2022-12-19T15:15:19.688Z,17
2022-12-19T15:20:19.652Z,19
2022-12-19T15:25:53.115Z,16
2022-12-19T15:30:19.644Z,16
2022-12-19T15:35:19.617Z,16
2022-12-19T15:40:19.631Z,18
2022-12-19T15:45:16.544Z,19
2022-12-19T15:50:16.629Z,19
2022-12-19T15:55:19.698Z,18
2022-12-19T16:00:19.727Z,9
2022-12-19T16:05:19.772Z,14
2022-12-19T16:10:19.790Z,20
2022-12-19T16:15:19.686Z,19
2022-12-19T16:20:19.701Z,13
2022-12-19T16:25:19.790Z,18
2022-12-19T16:30:19.868Z,19
2022-12-19T16:35:34.262Z,24
2022-12-19T16:40:16.673Z,24
2022-12-19T16:45:16.655Z,19
2022-12-19T16:50:19.813Z,23
2022-12-19T16:55:19.839Z,21
2022-12-19T17:00:19.793Z,13
2022-12-19T17:05:19.864Z,16
2022-12-19T17:10:25.652Z,14
2022-12-19T17:15:19.843Z,14
2022-12-19T17:20:20.079Z,16
2022-12-19T17:25:19.861Z,16
2022-12-19T17:30:20.058Z,17
2022-12-19T17:35:16.810Z,15
2022-12-19T17:40:20.000Z,18
2022-12-19T17:45:19.956Z,15
2022-12-19T17:50:19.936Z,14
2022-12-19T17:55:19.828Z,13
2022-12-19T18:00:22.822Z,19
2022-12-19T18:05:20.044Z,18
2022-12-19T18:10:19.977Z,14
2022-12-19T18:15:20.010Z,12
2022-12-19T18:20:19.937Z,14
2022-12-19T18:25:16.957Z,10
2022-12-19T18:30:16.905Z,11
2022-12-19T18:35:20.074Z,17
2022-12-19T18:40:23.442Z,15
2022-12-19T18:45:19.993Z,16
2022-12-19T18:50:20.082Z,17
2022-12-19T18:55:20.161Z,14
2022-12-19T19:00:20.025Z,13
2022-12-19T19:05:20.108Z,22
2022-12-19T19:10:20.044Z,18
2022-12-19T19:15:20.118Z,15
2022-12-19T19:20:17.036Z,16
2022-12-19T19:25:16.996Z,17
2022-12-19T19:30:20.136Z,17
2022-12-19T19:35:20.148Z,21
2022-12-19T19:40:20.180Z,19
2022-12-19T19:45:20.140Z,23
2022-12-19T19:50:20.292Z,19
2022-12-19T19:55:20.213Z,16
2022-12-19T20:00:20.152Z,17
2022-12-19T20:05:20.214Z,17
2022-12-19T20:10:20.257Z,16
2022-12-19T20:15:17.116Z,13
2022-12-19T20:20:17.208Z,13
2022-12-19T20:25:20.402Z,13
2022-12-19T20:30:20.259Z,9
2022-12-19T20:35:20.308Z,12
2022-12-19T20:40:20.238Z,13
2022-12-19T20:45:20.273Z,15
2022-12-19T20:50:20.229Z,17
2022-12-19T20:55:20.303Z,17
2022-12-19T21:00:20.165Z,14
2022-12-19T21:05:17.368Z,16
2022-12-19T21:10:17.276Z,13
2022-12-19T21:15:20.317Z,16
2022-12-19T21:20:20.386Z,15
2022-12-19T21:25:16.217Z,16
2022-12-19T21:30:16.266Z,13
2022-12-19T21:35:19.651Z,12
2022-12-19T21:40:19.362Z,15
2022-12-19T21:45:19.413Z,18
2022-12-19T21:50:19.403Z,17
2022-12-19T21:55:19.411Z,16
2022-12-19T22:00:19.432Z,16
2022-12-19T22:05:19.550Z,16
2022-12-19T22:10:19.563Z,17
2022-12-19T22:15:19.403Z,14
2022-12-19T22:20:16.232Z,14
2022-12-19T22:25:19.510Z,14
2022-12-19T22:30:19.567Z,14
2022-12-19T22:35:19.511Z,12
2022-12-19T22:40:19.524Z,15
2022-12-19T22:45:19.541Z,12
2022-12-19T22:50:19.778Z,10
2022-12-19T22:55:19.553Z,9
2022-12-19T23:00:19.642Z,12
2022-12-19T23:05:19.649Z,11
2022-12-19T23:10:16.425Z,9
2022-12-19T23:15:16.453Z,11
2022-12-19T23:20:19.799Z,9
2022-12-19T23:25:19.583Z,12
2022-12-19T23:30:19.589Z,10
2022-12-19T23:35:19.675Z,13
2022-12-19T23:40:19.672Z,11
2022-12-19T23:45:19.629Z,11
2022-12-19T23:50:19.602Z,9
2022-12-19T23:55:19.672Z,12
